KSAV/SAV METAR and TAF weather

Enter ICAO airport designator
Station Type Date Time Source
KSAV METAR 2022/12/04 04:53 UTC NOAA

KSAV 040453Z 33004KT 10SM BKN043 OVC050 18/16 A3025 RMK AO2 SLP242 LAST T01830156 402830117


Station Type Date Time Source
KSAV Decoded METAR 2022/12/04 04:53 UTC NOAA

SAVANNAH INTERNATIONAL AIRPORT , GA, United States (KSAV) 32-07N 81-12W 14M
Dec 03, 2022 - 11:53 PM EST / 2022.12.04 0453 UTC
Wind: from the NNW (330 degrees) at 5 MPH (4 KT):0
Visibility: 10 mile(s):0
Sky conditions: overcast
Temperature: 64.9 F (18.3 C)
Dew Point: 60.1 F (15.6 C)
Relative Humidity: 84%
Pressure (altimeter): 30.25 in. Hg (1024 hPa)
ob: KSAV 040453Z 33004KT 10SM BKN043 OVC050 18/16 A3025 RMK AO2 SLP242 LAST T01830156 402830117
cycle: 5

Station Type Date Time Source
KSAV TAF 2022/12/04 06:35 UTC NOAA

TAF KSAV 040527Z 0406/0506 32004KT P6SM SCT035 OVC050
FM041000 33004KT P6SM BKN022 OVC040
FM041800 34006KT P6SM BKN035 BKN200
FM050000 VRB03KT P6SM SCT035 BKN150

Example: see airport list